sensor_id;sensor_type;location;lat;lon;timestamp;P1;durP1;ratioP1;P2;durP2;ratioP2
75488;SDS011;64069;46.396;48.102;2022-10-16T00:02:10;5.75;;;1.80;;
75488;SDS011;64069;46.396;48.102;2022-10-16T00:04:36;5.43;;;2.13;;
75488;SDS011;64069;46.396;48.102;2022-10-16T00:07:02;4.38;;;2.20;;
75488;SDS011;64069;46.396;48.102;2022-10-16T00:09:28;6.20;;;1.95;;
75488;SDS011;64069;46.396;48.102;2022-10-16T00:11:54;4.85;;;1.98;;
75488;SDS011;64069;46.396;48.102;2022-10-16T00:14:20;3.88;;;1.88;;
75488;SDS011;64069;46.396;48.102;2022-10-16T00:16:46;4.70;;;2.20;;
75488;SDS011;64069;46.396;48.102;2022-10-16T00:19:12;4.38;;;1.85;;
75488;SDS011;64069;46.396;48.102;2022-10-16T00:21:38;4.80;;;2.25;;
75488;SDS011;64069;46.396;48.102;2022-10-16T00:24:05;3.97;;;2.13;;
75488;SDS011;64069;46.396;48.102;2022-10-16T00:26:34;3.72;;;1.90;;
75488;SDS011;64069;46.396;48.102;2022-10-16T00:29:01;5.32;;;2.50;;
75488;SDS011;64069;46.396;48.102;2022-10-16T00:31:28;6.57;;;2.38;;
75488;SDS011;64069;46.396;48.102;2022-10-16T00:33:55;4.57;;;2.25;;
75488;SDS011;64069;46.396;48.102;2022-10-16T00:36:22;4.15;;;1.98;;
75488;SDS011;64069;46.396;48.102;2022-10-16T00:38:50;4.80;;;1.92;;
75488;SDS011;64069;46.396;48.102;2022-10-16T00:41:19;5.05;;;2.20;;
75488;SDS011;64069;46.396;48.102;2022-10-16T00:43:50;5.05;;;2.10;;
75488;SDS011;64069;46.396;48.102;2022-10-16T00:46:41;3.20;;;1.75;;
75488;SDS011;64069;46.396;48.102;2022-10-16T00:49:11;5.10;;;2.30;;
75488;SDS011;64069;46.396;48.102;2022-10-16T00:51:41;5.10;;;2.13;;
75488;SDS011;64069;46.396;48.102;2022-10-16T00:54:15;5.28;;;2.33;;
75488;SDS011;64069;46.396;48.102;2022-10-16T00:56:45;5.85;;;2.40;;
75488;SDS011;64069;46.396;48.102;2022-10-16T00:59:16;5.47;;;2.53;;
75488;SDS011;64069;46.396;48.102;2022-10-16T01:01:45;5.20;;;2.75;;
75488;SDS011;64069;46.396;48.102;2022-10-16T01:04:11;4.78;;;2.40;;
75488;SDS011;64069;46.396;48.102;2022-10-16T01:12:14;6.60;;;2.65;;
75488;SDS011;64069;46.396;48.102;2022-10-16T01:14:58;6.15;;;2.65;;
75488;SDS011;64069;46.396;48.102;2022-10-16T01:20:40;7.72;;;3.10;;
75488;SDS011;64069;46.396;48.102;2022-10-16T01:23:02;6.78;;;2.50;;
75488;SDS011;64069;46.396;48.102;2022-10-16T01:28:10;7.28;;;3.08;;
75488;SDS011;64069;46.396;48.102;2022-10-16T01:30:38;7.07;;;3.80;;
75488;SDS011;64069;46.396;48.102;2022-10-16T01:33:17;5.30;;;2.53;;
75488;SDS011;64069;46.396;48.102;2022-10-16T01:35:48;5.03;;;2.55;;
75488;SDS011;64069;46.396;48.102;2022-10-16T01:38:31;6.63;;;2.92;;
75488;SDS011;64069;46.396;48.102;2022-10-16T01:41:01;6.50;;;2.85;;
75488;SDS011;64069;46.396;48.102;2022-10-16T01:43:40;8.02;;;2.92;;
75488;SDS011;64069;46.396;48.102;2022-10-16T01:46:25;5.90;;;2.63;;
75488;SDS011;64069;46.396;48.102;2022-10-16T01:48:53;7.63;;;3.10;;
75488;SDS011;64069;46.396;48.102;2022-10-16T01:51:20;6.30;;;3.05;;
75488;SDS011;64069;46.396;48.102;2022-10-16T01:53:50;6.60;;;2.95;;
75488;SDS011;64069;46.396;48.102;2022-10-16T01:56:19;5.77;;;2.40;;
75488;SDS011;64069;46.396;48.102;2022-10-16T01:58:49;9.80;;;2.80;;
75488;SDS011;64069;46.396;48.102;2022-10-16T02:01:20;6.05;;;2.72;;
75488;SDS011;64069;46.396;48.102;2022-10-16T02:03:49;6.65;;;3.22;;
75488;SDS011;64069;46.396;48.102;2022-10-16T02:06:19;7.20;;;2.80;;
75488;SDS011;64069;46.396;48.102;2022-10-16T02:08:45;5.03;;;2.78;;
75488;SDS011;64069;46.396;48.102;2022-10-16T02:11:12;6.53;;;2.78;;
75488;SDS011;64069;46.396;48.102;2022-10-16T02:13:52;8.57;;;3.15;;
75488;SDS011;64069;46.396;48.102;2022-10-16T02:16:23;10.93;;;4.25;;
75488;SDS011;64069;46.396;48.102;2022-10-16T02:18:59;7.28;;;2.63;;
75488;SDS011;64069;46.396;48.102;2022-10-16T02:21:25;6.22;;;3.22;;
75488;SDS011;64069;46.396;48.102;2022-10-16T02:24:02;7.75;;;3.17;;
75488;SDS011;64069;46.396;48.102;2022-10-16T02:26:35;5.40;;;2.25;;
75488;SDS011;64069;46.396;48.102;2022-10-16T02:29:09;7.78;;;3.13;;
75488;SDS011;64069;46.396;48.102;2022-10-16T02:31:38;7.47;;;3.42;;
75488;SDS011;64069;46.396;48.102;2022-10-16T02:34:08;7.38;;;3.20;;
75488;SDS011;64069;46.396;48.102;2022-10-16T02:36:37;6.82;;;3.10;;
75488;SDS011;64069;46.396;48.102;2022-10-16T02:39:04;7.07;;;3.05;;
75488;SDS011;64069;46.396;48.102;2022-10-16T02:41:31;6.95;;;2.60;;
75488;SDS011;64069;46.396;48.102;2022-10-16T02:43:58;6.88;;;2.83;;
75488;SDS011;64069;46.396;48.102;2022-10-16T02:46:24;7.07;;;3.38;;
75488;SDS011;64069;46.396;48.102;2022-10-16T02:48:50;10.70;;;2.90;;
75488;SDS011;64069;46.396;48.102;2022-10-16T02:51:16;6.57;;;3.10;;
75488;SDS011;64069;46.396;48.102;2022-10-16T02:53:42;6.80;;;3.17;;
75488;SDS011;64069;46.396;48.102;2022-10-16T02:56:07;7.88;;;3.03;;
75488;SDS011;64069;46.396;48.102;2022-10-16T02:58:34;6.15;;;3.08;;
75488;SDS011;64069;46.396;48.102;2022-10-16T03:00:59;6.75;;;3.10;;
75488;SDS011;64069;46.396;48.102;2022-10-16T03:03:25;8.90;;;3.70;;
75488;SDS011;64069;46.396;48.102;2022-10-16T03:05:51;6.80;;;2.60;;
75488;SDS011;64069;46.396;48.102;2022-10-16T03:08:17;9.18;;;3.38;;
75488;SDS011;64069;46.396;48.102;2022-10-16T03:10:48;7.82;;;3.30;;
75488;SDS011;64069;46.396;48.102;2022-10-16T03:13:15;10.02;;;4.03;;
75488;SDS011;64069;46.396;48.102;2022-10-16T03:15:41;10.07;;;3.80;;
75488;SDS011;64069;46.396;48.102;2022-10-16T03:18:07;9.40;;;3.75;;
75488;SDS011;64069;46.396;48.102;2022-10-16T03:20:33;9.18;;;3.70;;
75488;SDS011;64069;46.396;48.102;2022-10-16T03:22:59;7.97;;;3.53;;
75488;SDS011;64069;46.396;48.102;2022-10-16T03:25:25;8.05;;;3.55;;
75488;SDS011;64069;46.396;48.102;2022-10-16T03:27:51;10.10;;;4.25;;
75488;SDS011;64069;46.396;48.102;2022-10-16T03:30:17;9.00;;;4.20;;
75488;SDS011;64069;46.396;48.102;2022-10-16T03:32:44;5.50;;;2.60;;
75488;SDS011;64069;46.396;48.102;2022-10-16T03:35:11;9.57;;;3.40;;
75488;SDS011;64069;46.396;48.102;2022-10-16T03:37:37;7.63;;;3.67;;
75488;SDS011;64069;46.396;48.102;2022-10-16T03:40:04;6.32;;;3.03;;
75488;SDS011;64069;46.396;48.102;2022-10-16T03:42:30;8.45;;;3.75;;
75488;SDS011;64069;46.396;48.102;2022-10-16T03:44:56;7.63;;;3.13;;
75488;SDS011;64069;46.396;48.102;2022-10-16T03:47:22;6.60;;;3.70;;
75488;SDS011;64069;46.396;48.102;2022-10-16T03:49:49;9.18;;;3.75;;
75488;SDS011;64069;46.396;48.102;2022-10-16T03:52:15;8.65;;;3.67;;
75488;SDS011;64069;46.396;48.102;2022-10-16T03:54:41;9.93;;;4.22;;
75488;SDS011;64069;46.396;48.102;2022-10-16T03:57:07;8.15;;;3.38;;
75488;SDS011;64069;46.396;48.102;2022-10-16T03:59:33;6.28;;;3.58;;
75488;SDS011;64069;46.396;48.102;2022-10-16T04:01:59;8.75;;;3.78;;
75488;SDS011;64069;46.396;48.102;2022-10-16T04:04:25;11.75;;;3.60;;
75488;SDS011;64069;46.396;48.102;2022-10-16T04:06:51;12.63;;;4.05;;
75488;SDS011;64069;46.396;48.102;2022-10-16T04:09:17;10.07;;;3.78;;
75488;SDS011;64069;46.396;48.102;2022-10-16T04:11:43;18.70;;;3.70;;
75488;SDS011;64069;46.396;48.102;2022-10-16T04:14:09;9.23;;;4.40;;
75488;SDS011;64069;46.396;48.102;2022-10-16T04:16:35;9.00;;;4.57;;
75488;SDS011;64069;46.396;48.102;2022-10-16T04:19:01;11.43;;;4.47;;
75488;SDS011;64069;46.396;48.102;2022-10-16T04:21:27;10.15;;;4.00;;
75488;SDS011;64069;46.396;48.102;2022-10-16T04:23:53;11.30;;;3.95;;
75488;SDS011;64069;46.396;48.102;2022-10-16T04:26:19;8.48;;;3.80;;
75488;SDS011;64069;46.396;48.102;2022-10-16T04:28:45;11.70;;;5.38;;
75488;SDS011;64069;46.396;48.102;2022-10-16T04:31:11;29.88;;;9.73;;
75488;SDS011;64069;46.396;48.102;2022-10-16T04:33:37;29.73;;;11.93;;
75488;SDS011;64069;46.396;48.102;2022-10-16T04:36:03;22.38;;;7.93;;
75488;SDS011;64069;46.396;48.102;2022-10-16T04:38:30;14.38;;;6.18;;
75488;SDS011;64069;46.396;48.102;2022-10-16T04:40:56;8.88;;;4.20;;
75488;SDS011;64069;46.396;48.102;2022-10-16T04:43:22;9.75;;;5.00;;
75488;SDS011;64069;46.396;48.102;2022-10-16T04:45:48;9.93;;;4.72;;
75488;SDS011;64069;46.396;48.102;2022-10-16T04:48:16;7.93;;;4.00;;
75488;SDS011;64069;46.396;48.102;2022-10-16T04:50:42;11.82;;;4.32;;
75488;SDS011;64069;46.396;48.102;2022-10-16T04:53:08;11.70;;;4.85;;
75488;SDS011;64069;46.396;48.102;2022-10-16T04:55:34;13.35;;;5.07;;
75488;SDS011;64069;46.396;48.102;2022-10-16T04:58:00;11.63;;;4.40;;
75488;SDS011;64069;46.396;48.102;2022-10-16T05:00:26;13.57;;;5.50;;
75488;SDS011;64069;46.396;48.102;2022-10-16T05:02:52;33.20;;;10.27;;
75488;SDS011;64069;46.396;48.102;2022-10-16T05:05:18;22.48;;;8.10;;
75488;SDS011;64069;46.396;48.102;2022-10-16T05:07:45;12.50;;;5.90;;
75488;SDS011;64069;46.396;48.102;2022-10-16T05:10:12;16.05;;;7.25;;
75488;SDS011;64069;46.396;48.102;2022-10-16T05:12:42;10.52;;;4.22;;
75488;SDS011;64069;46.396;48.102;2022-10-16T05:15:08;7.38;;;3.67;;
75488;SDS011;64069;46.396;48.102;2022-10-16T05:17:38;6.45;;;3.10;;
75488;SDS011;64069;46.396;48.102;2022-10-16T05:20:04;6.15;;;2.78;;
75488;SDS011;64069;46.396;48.102;2022-10-16T05:22:30;7.35;;;3.55;;
75488;SDS011;64069;46.396;48.102;2022-10-16T05:24:56;9.02;;;3.08;;
75488;SDS011;64069;46.396;48.102;2022-10-16T05:27:22;7.15;;;3.45;;
75488;SDS011;64069;46.396;48.102;2022-10-16T05:29:48;6.15;;;3.28;;
75488;SDS011;64069;46.396;48.102;2022-10-16T05:32:15;6.13;;;2.58;;
75488;SDS011;64069;46.396;48.102;2022-10-16T05:34:41;5.75;;;2.78;;
75488;SDS011;64069;46.396;48.102;2022-10-16T05:37:08;5.93;;;2.88;;
75488;SDS011;64069;46.396;48.102;2022-10-16T05:39:34;4.75;;;2.17;;
75488;SDS011;64069;46.396;48.102;2022-10-16T05:42:02;8.88;;;2.90;;
75488;SDS011;64069;46.396;48.102;2022-10-16T05:44:28;7.80;;;2.58;;
75488;SDS011;64069;46.396;48.102;2022-10-16T05:46:58;5.13;;;2.33;;
75488;SDS011;64069;46.396;48.102;2022-10-16T05:49:24;5.10;;;2.50;;
75488;SDS011;64069;46.396;48.102;2022-10-16T05:51:50;5.20;;;2.40;;
75488;SDS011;64069;46.396;48.102;2022-10-16T05:54:16;5.55;;;2.22;;
75488;SDS011;64069;46.396;48.102;2022-10-16T05:56:42;4.15;;;2.08;;
75488;SDS011;64069;46.396;48.102;2022-10-16T05:59:08;5.10;;;2.00;;
75488;SDS011;64069;46.396;48.102;2022-10-16T06:01:34;5.72;;;2.08;;
75488;SDS011;64069;46.396;48.102;2022-10-16T06:04:00;3.90;;;1.90;;
75488;SDS011;64069;46.396;48.102;2022-10-16T06:06:27;4.60;;;2.00;;
75488;SDS011;64069;46.396;48.102;2022-10-16T06:08:55;6.22;;;2.05;;
75488;SDS011;64069;46.396;48.102;2022-10-16T06:11:23;5.47;;;2.15;;
75488;SDS011;64069;46.396;48.102;2022-10-16T06:13:51;4.45;;;2.08;;
75488;SDS011;64069;46.396;48.102;2022-10-16T06:16:19;4.30;;;2.33;;
75488;SDS011;64069;46.396;48.102;2022-10-16T06:18:45;7.70;;;2.00;;
75488;SDS011;64069;46.396;48.102;2022-10-16T06:21:14;4.32;;;2.00;;
75488;SDS011;64069;46.396;48.102;2022-10-16T06:23:44;5.93;;;2.08;;
75488;SDS011;64069;46.396;48.102;2022-10-16T06:26:15;3.38;;;1.73;;
75488;SDS011;64069;46.396;48.102;2022-10-16T06:28:42;3.88;;;1.73;;
75488;SDS011;64069;46.396;48.102;2022-10-16T06:31:09;4.63;;;1.80;;
75488;SDS011;64069;46.396;48.102;2022-10-16T06:33:37;4.75;;;2.22;;
75488;SDS011;64069;46.396;48.102;2022-10-16T06:36:13;8.52;;;1.80;;
75488;SDS011;64069;46.396;48.102;2022-10-16T06:38:40;2.58;;;1.60;;
75488;SDS011;64069;46.396;48.102;2022-10-16T06:41:07;6.38;;;1.73;;
75488;SDS011;64069;46.396;48.102;2022-10-16T06:43:36;5.07;;;2.00;;
75488;SDS011;64069;46.396;48.102;2022-10-16T06:46:03;3.00;;;1.63;;
75488;SDS011;64069;46.396;48.102;2022-10-16T06:48:33;3.97;;;1.70;;
75488;SDS011;64069;46.396;48.102;2022-10-16T06:51:01;2.40;;;1.40;;
75488;SDS011;64069;46.396;48.102;2022-10-16T06:53:28;3.17;;;1.40;;
75488;SDS011;64069;46.396;48.102;2022-10-16T06:55:55;3.65;;;1.75;;
75488;SDS011;64069;46.396;48.102;2022-10-16T06:58:22;5.35;;;1.85;;
75488;SDS011;64069;46.396;48.102;2022-10-16T07:00:49;5.18;;;2.38;;
75488;SDS011;64069;46.396;48.102;2022-10-16T07:03:22;5.15;;;2.03;;
75488;SDS011;64069;46.396;48.102;2022-10-16T07:05:48;9.00;;;2.53;;
75488;SDS011;64069;46.396;48.102;2022-10-16T07:08:14;7.40;;;2.72;;
75488;SDS011;64069;46.396;48.102;2022-10-16T07:10:40;6.03;;;1.83;;
75488;SDS011;64069;46.396;48.102;2022-10-16T07:13:06;3.15;;;1.40;;
75488;SDS011;64069;46.396;48.102;2022-10-16T07:15:33;5.50;;;2.30;;
75488;SDS011;64069;46.396;48.102;2022-10-16T07:17:59;6.88;;;2.05;;
75488;SDS011;64069;46.396;48.102;2022-10-16T07:20:25;4.53;;;1.70;;
75488;SDS011;64069;46.396;48.102;2022-10-16T07:22:51;4.38;;;1.88;;
75488;SDS011;64069;46.396;48.102;2022-10-16T07:25:17;2.47;;;1.50;;
75488;SDS011;64069;46.396;48.102;2022-10-16T07:27:43;3.90;;;1.60;;
75488;SDS011;64069;46.396;48.102;2022-10-16T07:30:13;6.00;;;1.63;;
75488;SDS011;64069;46.396;48.102;2022-10-16T07:32:39;4.65;;;1.50;;
75488;SDS011;64069;46.396;48.102;2022-10-16T07:35:06;3.58;;;1.60;;
75488;SDS011;64069;46.396;48.102;2022-10-16T07:37:32;3.78;;;1.80;;
75488;SDS011;64069;46.396;48.102;2022-10-16T07:39:58;5.10;;;2.03;;
75488;SDS011;64069;46.396;48.102;2022-10-16T07:42:24;7.18;;;1.60;;
75488;SDS011;64069;46.396;48.102;2022-10-16T07:44:50;3.00;;;1.27;;
75488;SDS011;64069;46.396;48.102;2022-10-16T07:47:16;2.92;;;1.48;;
75488;SDS011;64069;46.396;48.102;2022-10-16T07:49:42;2.60;;;1.23;;
75488;SDS011;64069;46.396;48.102;2022-10-16T07:52:08;4.25;;;1.40;;
75488;SDS011;64069;46.396;48.102;2022-10-16T07:54:34;6.25;;;1.08;;
75488;SDS011;64069;46.396;48.102;2022-10-16T07:57:00;2.60;;;1.20;;
75488;SDS011;64069;46.396;48.102;2022-10-16T07:59:26;4.82;;;1.27;;
75488;SDS011;64069;46.396;48.102;2022-10-16T08:01:52;2.72;;;1.27;;
75488;SDS011;64069;46.396;48.102;2022-10-16T08:04:18;1.77;;;1.10;;
75488;SDS011;64069;46.396;48.102;2022-10-16T08:06:43;3.67;;;1.38;;
75488;SDS011;64069;46.396;48.102;2022-10-16T08:09:12;4.45;;;1.38;;
75488;SDS011;64069;46.396;48.102;2022-10-16T08:11:38;2.42;;;1.20;;
75488;SDS011;64069;46.396;48.102;2022-10-16T08:14:03;3.70;;;1.27;;
75488;SDS011;64069;46.396;48.102;2022-10-16T08:16:29;1.80;;;1.10;;
75488;SDS011;64069;46.396;48.102;2022-10-16T08:18:55;5.85;;;1.20;;
75488;SDS011;64069;46.396;48.102;2022-10-16T08:21:22;1.95;;;1.25;;
75488;SDS011;64069;46.396;48.102;2022-10-16T08:23:50;4.32;;;1.30;;
75488;SDS011;64069;46.396;48.102;2022-10-16T08:26:21;1.85;;;1.02;;
75488;SDS011;64069;46.396;48.102;2022-10-16T08:28:49;2.05;;;1.10;;
75488;SDS011;64069;46.396;48.102;2022-10-16T08:31:16;5.07;;;1.20;;
75488;SDS011;64069;46.396;48.102;2022-10-16T08:33:43;3.50;;;1.33;;
75488;SDS011;64069;46.396;48.102;2022-10-16T08:36:12;3.60;;;1.20;;
75488;SDS011;64069;46.396;48.102;2022-10-16T08:38:38;2.50;;;1.10;;
75488;SDS011;64069;46.396;48.102;2022-10-16T08:44:14;2.33;;;1.23;;
75488;SDS011;64069;46.396;48.102;2022-10-16T08:46:57;4.38;;;1.35;;
75488;SDS011;64069;46.396;48.102;2022-10-16T08:49:33;2.05;;;1.13;;
75488;SDS011;64069;46.396;48.102;2022-10-16T08:51:59;4.65;;;1.30;;
75488;SDS011;64069;46.396;48.102;2022-10-16T08:56:55;3.70;;;1.80;;
75488;SDS011;64069;46.396;48.102;2022-10-16T08:59:47;2.90;;;1.15;;
75488;SDS011;64069;46.396;48.102;2022-10-16T09:12:50;3.30;;;1.50;;
75488;SDS011;64069;46.396;48.102;2022-10-16T09:15:29;3.05;;;1.33;;
75488;SDS011;64069;46.396;48.102;2022-10-16T09:18:19;6.10;;;1.10;;
75488;SDS011;64069;46.396;48.102;2022-10-16T09:21:28;3.40;;;1.10;;
75488;SDS011;64069;46.396;48.102;2022-10-16T09:23:49;2.33;;;1.00;;
75488;SDS011;64069;46.396;48.102;2022-10-16T09:26:17;2.67;;;0.93;;
75488;SDS011;64069;46.396;48.102;2022-10-16T09:28:47;4.13;;;1.30;;
75488;SDS011;64069;46.396;48.102;2022-10-16T09:31:19;3.47;;;0.95;;
75488;SDS011;64069;46.396;48.102;2022-10-16T09:33:49;2.00;;;1.15;;
75488;SDS011;64069;46.396;48.102;2022-10-16T09:36:21;3.20;;;1.05;;
75488;SDS011;64069;46.396;48.102;2022-10-16T09:38:49;1.70;;;1.10;;
75488;SDS011;64069;46.396;48.102;2022-10-16T09:41:24;6.85;;;1.30;;
75488;SDS011;64069;46.396;48.102;2022-10-16T09:43:59;3.22;;;1.40;;
75488;SDS011;64069;46.396;48.102;2022-10-16T09:46:38;4.53;;;1.20;;
75488;SDS011;64069;46.396;48.102;2022-10-16T09:49:20;1.58;;;0.95;;
75488;SDS011;64069;46.396;48.102;2022-10-16T09:51:48;2.60;;;0.90;;
75488;SDS011;64069;46.396;48.102;2022-10-16T09:54:18;5.65;;;1.30;;
75488;SDS011;64069;46.396;48.102;2022-10-16T09:56:46;4.47;;;1.38;;
75488;SDS011;64069;46.396;48.102;2022-10-16T09:59:21;2.53;;;1.10;;
75488;SDS011;64069;46.396;48.102;2022-10-16T10:01:53;4.40;;;1.20;;
75488;SDS011;64069;46.396;48.102;2022-10-16T10:04:21;4.30;;;1.70;;
75488;SDS011;64069;46.396;48.102;2022-10-16T10:06:50;2.67;;;1.30;;
75488;SDS011;64069;46.396;48.102;2022-10-16T10:09:23;2.70;;;1.10;;
75488;SDS011;64069;46.396;48.102;2022-10-16T10:19:36;1.63;;;1.00;;
75488;SDS011;64069;46.396;48.102;2022-10-16T10:22:25;2.35;;;1.20;;
75488;SDS011;64069;46.396;48.102;2022-10-16T10:25:34;1.45;;;0.90;;
75488;SDS011;64069;46.396;48.102;2022-10-16T10:28:16;1.67;;;0.98;;
75488;SDS011;64069;46.396;48.102;2022-10-16T10:30:56;5.82;;;1.30;;
75488;SDS011;64069;46.396;48.102;2022-10-16T10:44:01;2.85;;;1.08;;
75488;SDS011;64069;46.396;48.102;2022-10-16T10:57:28;1.45;;;0.90;;
75488;SDS011;64069;46.396;48.102;2022-10-16T11:03:29;3.15;;;1.27;;
75488;SDS011;64069;46.396;48.102;2022-10-16T11:06:24;2.42;;;1.00;;
75488;SDS011;64069;46.396;48.102;2022-10-16T11:08:55;6.78;;;0.90;;
75488;SDS011;64069;46.396;48.102;2022-10-16T11:11:36;3.00;;;1.10;;
75488;SDS011;64069;46.396;48.102;2022-10-16T11:14:19;2.50;;;0.93;;
75488;SDS011;64069;46.396;48.102;2022-10-16T11:16:59;6.78;;;3.30;;
75488;SDS011;64069;46.396;48.102;2022-10-16T11:19:39;3.00;;;1.65;;
75488;SDS011;64069;46.396;48.102;2022-10-16T11:25:00;4.43;;;1.75;;
75488;SDS011;64069;46.396;48.102;2022-10-16T11:27:45;1.52;;;1.00;;
75488;SDS011;64069;46.396;48.102;2022-10-16T11:30:22;2.47;;;1.42;;
75488;SDS011;64069;46.396;48.102;2022-10-16T11:32:56;4.15;;;2.33;;
75488;SDS011;64069;46.396;48.102;2022-10-16T11:38:15;2.35;;;1.10;;
75488;SDS011;64069;46.396;48.102;2022-10-16T11:41:10;6.32;;;2.13;;
75488;SDS011;64069;46.396;48.102;2022-10-16T11:47:07;1.60;;;0.95;;
75488;SDS011;64069;46.396;48.102;2022-10-16T11:49:57;3.50;;;1.42;;
75488;SDS011;64069;46.396;48.102;2022-10-16T11:55:19;1.80;;;0.70;;
75488;SDS011;64069;46.396;48.102;2022-10-16T11:57:52;2.03;;;1.08;;
75488;SDS011;64069;46.396;48.102;2022-10-16T12:00:25;2.80;;;1.20;;
75488;SDS011;64069;46.396;48.102;2022-10-16T12:03:04;4.07;;;1.63;;
75488;SDS011;64069;46.396;48.102;2022-10-16T12:08:35;2.80;;;1.42;;
75488;SDS011;64069;46.396;48.102;2022-10-16T12:11:22;38.00;;;15.15;;
75488;SDS011;64069;46.396;48.102;2022-10-16T12:14:03;29.27;;;10.02;;
75488;SDS011;64069;46.396;48.102;2022-10-16T12:20:53;10.63;;;4.18;;
75488;SDS011;64069;46.396;48.102;2022-10-16T12:22:53;14.23;;;6.68;;
75488;SDS011;64069;46.396;48.102;2022-10-16T12:25:53;26.88;;;8.55;;
75488;SDS011;64069;46.396;48.102;2022-10-16T12:28:21;9.05;;;4.03;;
75488;SDS011;64069;46.396;48.102;2022-10-16T12:30:52;9.25;;;2.17;;
75488;SDS011;64069;46.396;48.102;2022-10-16T12:33:32;16.17;;;5.43;;
75488;SDS011;64069;46.396;48.102;2022-10-16T12:36:00;18.15;;;5.35;;
75488;SDS011;64069;46.396;48.102;2022-10-16T12:38:44;12.32;;;3.40;;
75488;SDS011;64069;46.396;48.102;2022-10-16T12:41:12;15.07;;;4.47;;
75488;SDS011;64069;46.396;48.102;2022-10-16T12:43:53;17.27;;;6.25;;
75488;SDS011;64069;46.396;48.102;2022-10-16T12:46:26;7.90;;;2.55;;
75488;SDS011;64069;46.396;48.102;2022-10-16T12:49:48;3.35;;;1.40;;
75488;SDS011;64069;46.396;48.102;2022-10-16T12:51:57;3.65;;;1.52;;
75488;SDS011;64069;46.396;48.102;2022-10-16T12:59:57;7.05;;;2.65;;
75488;SDS011;64069;46.396;48.102;2022-10-16T13:17:12;3.85;;;1.20;;
75488;SDS011;64069;46.396;48.102;2022-10-16T13:28:27;6.32;;;1.98;;
75488;SDS011;64069;46.396;48.102;2022-10-16T13:30:56;7.35;;;1.95;;
75488;SDS011;64069;46.396;48.102;2022-10-16T13:35:56;6.05;;;1.30;;
75488;SDS011;64069;46.396;48.102;2022-10-16T13:38:24;7.53;;;1.80;;
75488;SDS011;64069;46.396;48.102;2022-10-16T13:43:22;5.75;;;1.42;;
75488;SDS011;64069;46.396;48.102;2022-10-16T13:46:01;6.88;;;1.50;;
75488;SDS011;64069;46.396;48.102;2022-10-16T13:48:59;6.88;;;1.20;;
75488;SDS011;64069;46.396;48.102;2022-10-16T13:51:29;6.88;;;1.55;;
75488;SDS011;64069;46.396;48.102;2022-10-16T13:53:56;2.83;;;1.40;;
75488;SDS011;64069;46.396;48.102;2022-10-16T13:56:26;5.05;;;1.27;;
75488;SDS011;64069;46.396;48.102;2022-10-16T13:59:01;8.50;;;1.13;;
75488;SDS011;64069;46.396;48.102;2022-10-16T14:01:49;4.10;;;1.25;;
75488;SDS011;64069;46.396;48.102;2022-10-16T14:04:18;15.63;;;3.08;;
75488;SDS011;64069;46.396;48.102;2022-10-16T14:06:45;7.85;;;2.13;;
75488;SDS011;64069;46.396;48.102;2022-10-16T14:09:18;5.53;;;2.10;;
75488;SDS011;64069;46.396;48.102;2022-10-16T14:11:58;8.65;;;2.00;;
75488;SDS011;64069;46.396;48.102;2022-10-16T14:14:42;6.47;;;2.03;;
75488;SDS011;64069;46.396;48.102;2022-10-16T14:17:18;8.77;;;1.80;;
75488;SDS011;64069;46.396;48.102;2022-10-16T14:19:50;6.50;;;2.30;;
75488;SDS011;64069;46.396;48.102;2022-10-16T14:22:28;11.05;;;3.03;;
75488;SDS011;64069;46.396;48.102;2022-10-16T14:24:56;6.88;;;1.95;;
75488;SDS011;64069;46.396;48.102;2022-10-16T14:27:33;9.50;;;2.38;;
75488;SDS011;64069;46.396;48.102;2022-10-16T14:32:34;5.70;;;1.90;;
75488;SDS011;64069;46.396;48.102;2022-10-16T14:35:00;6.00;;;2.40;;
75488;SDS011;64069;46.396;48.102;2022-10-16T14:37:27;8.80;;;5.40;;
75488;SDS011;64069;46.396;48.102;2022-10-16T14:39:54;9.48;;;5.90;;
75488;SDS011;64069;46.396;48.102;2022-10-16T14:42:22;13.80;;;6.00;;
75488;SDS011;64069;46.396;48.102;2022-10-16T14:44:53;9.68;;;4.00;;
75488;SDS011;64069;46.396;48.102;2022-10-16T14:47:20;12.55;;;4.80;;
75488;SDS011;64069;46.396;48.102;2022-10-16T14:49:53;15.02;;;6.18;;
75488;SDS011;64069;46.396;48.102;2022-10-16T14:52:21;13.35;;;6.40;;
75488;SDS011;64069;46.396;48.102;2022-10-16T14:54:50;14.73;;;6.55;;
75488;SDS011;64069;46.396;48.102;2022-10-16T14:57:26;19.70;;;6.93;;
75488;SDS011;64069;46.396;48.102;2022-10-16T14:59:59;19.90;;;7.82;;
75488;SDS011;64069;46.396;48.102;2022-10-16T15:05:07;16.55;;;7.72;;
75488;SDS011;64069;46.396;48.102;2022-10-16T15:07:39;20.55;;;6.68;;
75488;SDS011;64069;46.396;48.102;2022-10-16T15:10:05;17.63;;;7.05;;
75488;SDS011;64069;46.396;48.102;2022-10-16T15:12:31;17.02;;;7.43;;
75488;SDS011;64069;46.396;48.102;2022-10-16T15:15:00;16.65;;;7.45;;
75488;SDS011;64069;46.396;48.102;2022-10-16T15:17:26;14.70;;;8.02;;
75488;SDS011;64069;46.396;48.102;2022-10-16T15:19:58;16.73;;;7.50;;
75488;SDS011;64069;46.396;48.102;2022-10-16T15:22:24;17.33;;;7.97;;
75488;SDS011;64069;46.396;48.102;2022-10-16T15:24:50;14.80;;;6.97;;
75488;SDS011;64069;46.396;48.102;2022-10-16T15:27:16;16.80;;;6.43;;
75488;SDS011;64069;46.396;48.102;2022-10-16T15:29:42;17.02;;;7.13;;
75488;SDS011;64069;46.396;48.102;2022-10-16T15:32:11;17.85;;;7.35;;
75488;SDS011;64069;46.396;48.102;2022-10-16T15:34:37;18.63;;;6.18;;
75488;SDS011;64069;46.396;48.102;2022-10-16T15:37:03;23.85;;;6.07;;
75488;SDS011;64069;46.396;48.102;2022-10-16T15:39:29;16.55;;;5.75;;
75488;SDS011;64069;46.396;48.102;2022-10-16T15:41:55;18.58;;;6.18;;
75488;SDS011;64069;46.396;48.102;2022-10-16T15:44:25;16.23;;;6.15;;
75488;SDS011;64069;46.396;48.102;2022-10-16T15:46:56;18.10;;;5.80;;
75488;SDS011;64069;46.396;48.102;2022-10-16T15:49:22;20.55;;;5.90;;
75488;SDS011;64069;46.396;48.102;2022-10-16T15:51:48;14.18;;;4.95;;
75488;SDS011;64069;46.396;48.102;2022-10-16T15:54:14;11.02;;;4.40;;
75488;SDS011;64069;46.396;48.102;2022-10-16T15:56:40;12.52;;;4.05;;
75488;SDS011;64069;46.396;48.102;2022-10-16T15:59:06;11.80;;;3.70;;
75488;SDS011;64069;46.396;48.102;2022-10-16T16:01:36;10.45;;;3.90;;
75488;SDS011;64069;46.396;48.102;2022-10-16T16:04:03;14.00;;;3.78;;
75488;SDS011;64069;46.396;48.102;2022-10-16T16:06:30;10.63;;;3.85;;
75488;SDS011;64069;46.396;48.102;2022-10-16T16:08:56;15.85;;;4.72;;
75488;SDS011;64069;46.396;48.102;2022-10-16T16:11:24;14.45;;;4.30;;
75488;SDS011;64069;46.396;48.102;2022-10-16T16:13:54;17.20;;;4.10;;
75488;SDS011;64069;46.396;48.102;2022-10-16T16:16:25;13.27;;;4.05;;
75488;SDS011;64069;46.396;48.102;2022-10-16T16:18:52;30.75;;;5.47;;
75488;SDS011;64069;46.396;48.102;2022-10-16T16:21:18;22.77;;;4.90;;
75488;SDS011;64069;46.396;48.102;2022-10-16T16:23:44;15.43;;;3.88;;
75488;SDS011;64069;46.396;48.102;2022-10-16T16:28:41;15.13;;;4.57;;
75488;SDS011;64069;46.396;48.102;2022-10-16T16:31:08;20.13;;;4.80;;
75488;SDS011;64069;46.396;48.102;2022-10-16T16:33:34;15.38;;;4.85;;
75488;SDS011;64069;46.396;48.102;2022-10-16T16:36:03;13.27;;;5.25;;
75488;SDS011;64069;46.396;48.102;2022-10-16T16:38:32;16.55;;;5.97;;
75488;SDS011;64069;46.396;48.102;2022-10-16T16:40:59;12.80;;;5.57;;
75488;SDS011;64069;46.396;48.102;2022-10-16T16:43:25;15.93;;;4.82;;
75488;SDS011;64069;46.396;48.102;2022-10-16T16:45:53;10.90;;;4.40;;
75488;SDS011;64069;46.396;48.102;2022-10-16T16:48:22;41.58;;;10.95;;